Time;durP1;ratioP1;P1;durP2;ratioP2;P2;SDS_P1;SDS_P2;PMS_P1;PMS_P2;Temp;Humidity;BMP_temperature;BMP_pressure;BME280_temperature;BME280_humidity;BME280_pressure;Samples;Min_cycle;Max_cycle;Signal;HPM_P1;HPM_P2
2022/10/28 00:00:05;;;;;;;6.95;3.22;;;;;;;8.93;90.74;98286.38;5027130;28;20516;-62
2022/10/28 00:02:32;;;;;;;7.07;3.47;;;;;;;8.23;89.92;98164.53;5027374;28;20061;-62
2022/10/28 00:04:59;;;;;;;11.35;4.60;;;;;;;8.54;89.63;98223.91;5026126;28;20132;-62
2022/10/28 00:07:27;;;;;;;7.93;4.68;;;;;;;8.75;89.75;98248.88;5027632;28;20076;-62
2022/10/28 00:09:53;;;;;;;9.45;4.90;;;;;;;8.99;90.00;98291.38;5027238;28;20076;-62
2022/10/28 00:12:20;;;;;;;8.10;4.13;;;;;;;8.70;89.44;98238.81;5025669;28;20085;-62
2022/10/28 00:14:46;;;;;;;7.40;3.33;;;;;;;8.94;87.77;98265.88;5027100;28;20085;-62
2022/10/28 00:17:13;;;;;;;11.10;4.13;;;;;;;8.97;86.85;98290.09;5027307;28;20077;-62
2022/10/28 00:19:40;;;;;;;11.73;3.83;;;;;;;8.83;87.58;98281.19;5027260;28;20080;-63
2022/10/28 00:22:06;;;;;;;7.88;3.45;;;;;;;8.82;86.64;98296.16;5025359;28;20060;-62
2022/10/28 00:24:33;;;;;;;8.48;3.30;;;;;;;8.19;86.58;98185.63;5027006;28;20073;-63
2022/10/28 00:27:00;;;;;;;11.45;3.92;;;;;;;8.46;87.09;98238.53;5026624;28;20136;-62
2022/10/28 00:29:26;;;;;;;10.23;3.78;;;;;;;8.64;87.51;98277.97;5009002;28;20076;-62
2022/10/28 00:31:54;;;;;;;11.43;4.32;;;;;;;8.43;88.36;98244.72;5025357;28;20049;-63
2022/10/28 00:34:21;;;;;;;6.00;3.30;;;;;;;8.56;86.98;98276.03;5025567;28;21293;-62
2022/10/28 00:36:48;;;;;;;9.90;4.28;;;;;;;8.56;86.07;98292.63;5024829;28;20088;-62
2022/10/28 00:39:20;;;;;;;5.10;3.15;;;;;;;8.41;86.71;98285.63;5026427;28;20605;-62
2022/10/28 00:41:50;;;;;;;8.93;3.60;;;;;;;8.40;86.82;98288.72;5026424;28;20132;-62
2022/10/28 00:44:38;;;;;;;7.85;3.55;;;;;;;8.41;87.63;98284.84;5026325;28;20085;-63
2022/10/28 00:47:12;;;;;;;6.43;3.08;;;;;;;8.38;87.88;98293.75;5026673;28;20127;-63
2022/10/28 00:49:39;;;;;;;7.18;3.30;;;;;;;8.28;88.77;98291.34;5024923;28;20128;-62
2022/10/28 00:52:12;;;;;;;7.68;3.30;;;;;;;8.28;89.91;98294.91;5026049;28;20512;-61
2022/10/28 00:54:39;;;;;;;5.60;3.30;;;;;;;8.25;90.24;98275.44;5026621;28;20111;-63
2022/10/28 00:57:11;;;;;;;11.48;4.10;;;;;;;8.32;90.68;98281.25;5022675;28;20455;-62
2022/10/28 00:59:42;;;;;;;8.70;3.70;;;;;;;8.38;91.56;98279.94;5026408;28;20045;-62
2022/10/28 01:02:09;;;;;;;9.88;3.67;;;;;;;8.40;92.06;98266.63;5026234;28;20340;-62
2022/10/28 01:04:37;;;;;;;9.43;3.83;;;;;;;8.50;90.69;98282.88;5024391;28;20612;-62
2022/10/28 01:07:04;;;;;;;7.18;4.05;;;;;;;8.29;90.20;98248.78;5026323;28;20118;-62
2022/10/28 01:09:31;;;;;;;8.32;3.78;;;;;;;8.03;90.38;98279.09;5029956;28;20053;-63
2022/10/28 01:12:16;;;;;;;8.02;3.72;;;;;;;7.81;93.27;98279.25;5026178;28;20050;-62
2022/10/28 01:15:04;;;;;;;7.60;3.67;;;;;;;7.99;92.11;98280.91;5026067;28;20128;-62
2022/10/28 01:17:58;;;;;;;7.68;3.80;;;;;;;8.08;91.81;98275.41;5026112;28;20132;-61
2022/10/28 01:21:01;;;;;;;11.20;4.10;;;;;;;8.14;92.26;98285.13;5026198;28;20111;-62
2022/10/28 01:23:40;;;;;;;10.05;4.05;;;;;;;8.19;92.59;98271.19;5024786;28;20092;-61
2022/10/28 01:26:25;;;;;;;9.45;4.47;;;;;;;7.84;94.03;98214.38;5025909;28;20164;-62
2022/10/28 01:29:20;;;;;;;9.70;4.10;;;;;;;8.24;94.05;98268.25;5026276;28;20081;-64
2022/10/28 01:31:51;;;;;;;9.55;4.45;;;;;;;8.06;96.46;98261.09;5025716;28;20077;-63
2022/10/28 01:34:30;;;;;;;8.40;4.40;;;;;;;7.81;96.98;98253.63;5025490;28;20081;-63
2022/10/28 01:37:13;;;;;;;14.63;5.47;;;;;;;8.03;96.71;98265.31;5025329;28;20547;-65
2022/10/28 01:39:46;;;;;;;11.80;6.83;;;;;;;8.14;95.13;98260.31;5025760;28;20132;-66
2022/10/28 01:42:15;;;;;;;8.93;5.60;;;;;;;8.09;96.23;98260.47;5024057;28;20395;-63
2022/10/28 01:44:45;;;;;;;10.07;4.97;;;;;;;8.16;96.47;98269.03;5023909;28;20057;-62
2022/10/28 01:47:33;;;;;;;9.52;4.60;;;;;;;8.30;94.63;98272.50;5025407;28;20046;-62
2022/10/28 01:50:06;;;;;;;7.15;4.20;;;;;;;8.28;94.08;98280.31;5024990;28;20153;-63
2022/10/28 01:52:33;;;;;;;10.32;4.45;;;;;;;8.25;94.11;98278.19;5025132;28;20136;-62
2022/10/28 01:55:15;;;;;;;10.18;4.25;;;;;;;8.26;94.41;98271.53;5024133;28;20119;-62
2022/10/28 01:57:44;;;;;;;11.80;5.10;;;;;;;8.29;94.04;98268.09;5023636;28;20516;-62
2022/10/28 02:00:12;;;;;;;9.65;4.43;;;;;;;8.21;94.86;98268.88;5023577;28;20582;-62
2022/10/28 02:02:39;;;;;;;9.10;4.53;;;;;;;7.72;95.25;98204.78;5024576;28;20092;-63
2022/10/28 02:05:34;;;;;;;12.00;4.93;;;;;;;8.07;96.09;98271.00;5023671;28;20049;-61
2022/10/28 02:08:14;;;;;;;13.25;5.63;;;;;;;8.05;97.08;98281.53;5024917;28;20574;-63
2022/10/28 02:10:47;;;;;;;12.55;5.57;;;;;;;7.74;96.06;98188.69;5025088;28;20083;-61
2022/10/28 02:13:16;;;;;;;14.27;5.40;;;;;;;7.81;96.25;98209.50;5025204;28;20166;-62
2022/10/28 02:15:58;;;;;;;9.70;5.50;;;;;;;8.09;96.72;98254.94;5024763;28;20532;-62
2022/10/28 02:18:28;;;;;;;11.80;6.43;;;;;;;8.21;94.00;98274.41;5024820;28;20122;-64
2022/10/28 02:21:24;;;;;;;26.75;18.50;;;;;;;8.15;92.06;98271.00;5024444;28;20053;-63
2022/10/28 02:24:07;;;;;;;18.67;11.38;;;;;;;7.73;91.74;98211.09;5017853;28;20081;-62
2022/10/28 02:26:42;;;;;;;42.22;22.00;;;;;;;7.96;92.03;98266.94;5023192;28;20046;-64
2022/10/28 02:29:19;;;;;;;18.20;8.48;;;;;;;7.43;91.75;98215.59;5024744;28;20148;-64
2022/10/28 02:31:54;;;;;;;13.82;7.60;;;;;;;7.36;92.25;98214.47;5024830;28;20093;-65
2022/10/28 02:34:28;;;;;;;16.48;9.40;;;;;;;7.09;93.64;98182.47;5023335;28;20081;-62
2022/10/28 02:36:58;;;;;;;16.73;8.18;;;;;;;6.96;93.98;98205.41;5024468;28;20132;-64
2022/10/28 02:39:37;;;;;;;15.32;6.22;;;;;;;7.74;96.11;98281.69;5024802;28;20053;-61
2022/10/28 02:42:11;;;;;;;11.88;5.55;;;;;;;7.82;96.14;98275.38;5024129;28;20084;-61
2022/10/28 02:44:43;;;;;;;12.77;5.03;;;;;;;7.95;96.46;98276.34;5024465;28;20103;-61
2022/10/28 02:47:15;;;;;;;9.07;4.63;;;;;;;7.97;96.74;98268.53;5024607;28;20099;-62
2022/10/28 02:49:46;;;;;;;9.73;4.43;;;;;;;7.77;97.62;98255.41;5024851;28;20132;-61
2022/10/28 02:52:15;;;;;;;11.25;4.05;;;;;;;7.50;98.26;98215.94;5024364;28;20136;-61
2022/10/28 02:55:03;;;;;;;6.82;3.85;;;;;;;7.68;97.66;98225.06;5023047;28;20571;-63
2022/10/28 02:57:40;;;;;;;7.70;3.78;;;;;;;7.96;98.17;98262.25;5023038;28;20542;-64
2022/10/28 03:00:21;;;;;;;10.57;4.68;;;;;;;8.05;98.14;98276.03;5024585;28;20093;-62
2022/10/28 03:02:47;;;;;;;12.05;5.45;;;;;;;8.06;97.28;98289.50;5028239;28;20441;-64
2022/10/28 03:05:14;;;;;;;18.88;11.88;;;;;;;7.07;95.29;98140.63;5028332;28;20119;-63
2022/10/28 03:07:41;;;;;;;27.80;17.58;;;;;;;7.57;95.06;98219.03;5026894;28;20054;-63
2022/10/28 03:10:09;;;;;;;23.75;16.83;;;;;;;7.49;94.82;98211.56;5028119;28;20053;-63
2022/10/28 03:12:35;;;;;;;14.85;9.57;;;;;;;7.81;96.16;98293.03;5028053;28;20107;-62
2022/10/28 03:15:03;;;;;;;14.02;5.50;;;;;;;7.78;98.08;98293.69;5027911;28;20111;-61
2022/10/28 03:17:29;;;;;;;10.65;4.50;;;;;;;7.74;99.69;98288.00;5026788;28;20566;-61
2022/10/28 03:19:56;;;;;;;12.18;7.40;;;;;;;7.73;99.71;98291.91;5028639;28;20139;-61
2022/10/28 03:22:23;;;;;;;10.73;5.88;;;;;;;7.04;100.00;98199.13;5028284;28;20144;-62
2022/10/28 03:24:49;;;;;;;12.90;4.90;;;;;;;7.80;100.00;98285.09;5027500;28;20143;-61
2022/10/28 03:27:16;;;;;;;8.20;4.82;;;;;;;7.72;98.87;98272.91;5026805;28;20583;-64
2022/10/28 03:29:42;;;;;;;14.13;6.10;;;;;;;7.86;98.41;98290.13;5028293;28;20077;-63
2022/10/28 03:32:12;;;;;;;10.95;6.80;;;;;;;7.49;97.73;98235.56;5028467;28;20073;-61
2022/10/28 03:34:38;;;;;;;20.35;8.52;;;;;;;7.82;97.60;98299.38;5026804;28;20073;-61
2022/10/28 03:37:05;;;;;;;11.55;5.97;;;;;;;7.46;97.59;98239.75;5027759;28;20152;-61
2022/10/28 03:39:32;;;;;;;19.27;7.47;;;;;;;7.65;99.11;98273.38;5027837;28;20155;-61
2022/10/28 03:41:58;;;;;;;23.08;9.30;;;;;;;7.86;99.17;98289.31;5027760;28;20127;-64
2022/10/28 03:44:25;;;;;;;20.60;9.75;;;;;;;7.85;98.68;98293.22;5027529;28;20148;-63
2022/10/28 03:46:52;;;;;;;15.90;8.20;;;;;;;7.38;97.22;98240.56;5027799;28;20099;-63
2022/10/28 03:49:18;;;;;;;17.88;10.43;;;;;;;7.61;95.72;98283.44;5027744;28;20157;-64
2022/10/28 03:51:45;;;;;;;29.35;21.88;;;;;;;7.49;95.18;98269.44;5026494;28;20578;-63
2022/10/28 03:54:11;;;;;;;19.38;10.52;;;;;;;6.38;95.07;98111.25;5027736;28;20050;-63
2022/10/28 03:56:39;;;;;;;19.08;10.80;;;;;;;7.68;94.52;98300.31;5026139;28;20480;-64
2022/10/28 03:59:08;;;;;;;16.55;9.63;;;;;;;7.70;93.94;98306.34;5026005;28;20507;-63
2022/10/28 04:01:35;;;;;;;17.42;11.30;;;;;;;7.63;94.75;98292.19;5026027;28;20501;-63
2022/10/28 04:04:02;;;;;;;16.10;10.88;;;;;;;7.52;94.19;98277.06;5027644;28;20136;-63
2022/10/28 04:06:29;;;;;;;21.02;11.65;;;;;;;7.66;94.18;98297.09;5027293;28;20475;-63
2022/10/28 04:08:55;;;;;;;19.20;10.85;;;;;;;7.69;93.54;98307.47;5026155;28;20132;-61
2022/10/28 04:11:22;;;;;;;16.65;9.18;;;;;;;7.37;92.69;98273.94;5026745;28;20132;-63
2022/10/28 04:13:48;;;;;;;19.35;9.80;;;;;;;6.91;93.89;98227.59;5027073;28;20049;-63
2022/10/28 04:16:15;;;;;;;18.55;10.38;;;;;;;6.84;94.50;98196.97;5027268;28;20101;-65
2022/10/28 04:18:41;;;;;;;26.65;14.75;;;;;;;7.26;94.54;98265.16;5027230;28;20081;-63
2022/10/28 04:21:08;;;;;;;17.50;10.15;;;;;;;7.48;92.99;98294.56;5026906;28;20049;-63
2022/10/28 04:23:35;;;;;;;13.10;8.38;;;;;;;7.37;91.52;98296.81;5026962;28;20053;-63
2022/10/28 04:26:01;;;;;;;15.80;8.40;;;;;;;6.98;91.62;98241.72;5027139;28;20050;-63
2022/10/28 04:28:28;;;;;;;15.50;8.25;;;;;;;7.28;91.98;98301.50;5025708;28;20045;-63
2022/10/28 04:30:55;;;;;;;20.85;8.82;;;;;;;7.19;92.38;98303.38;5026322;28;20104;-65
2022/10/28 04:33:21;;;;;;;18.27;9.98;;;;;;;7.21;92.57;98306.66;5025489;28;20079;-64
2022/10/28 04:35:48;;;;;;;21.98;13.63;;;;;;;7.03;93.73;98282.91;5025007;28;20131;-62
2022/10/28 04:38:14;;;;;;;29.88;15.70;;;;;;;7.21;95.69;98300.31;5026441;28;20076;-62
2022/10/28 04:40:41;;;;;;;26.33;14.32;;;;;;;7.20;96.54;98299.53;5026854;28;20914;-62
2022/10/28 04:43:09;;;;;;;22.35;13.57;;;;;;;7.25;95.45;98299.38;5024906;28;20096;-62
2022/10/28 04:45:36;;;;;;;29.13;14.32;;;;;;;7.14;95.50;98278.75;5026582;28;20049;-62
2022/10/28 04:48:03;;;;;;;24.75;9.75;;;;;;;7.32;94.17;98296.97;5026397;28;20144;-62
2022/10/28 04:50:30;;;;;;;25.45;10.80;;;;;;;6.95;93.16;98255.31;5025700;28;20137;-63
2022/10/28 04:52:56;;;;;;;17.80;7.75;;;;;;;7.07;91.24;98289.41;5026060;28;20589;-62
2022/10/28 04:55:23;;;;;;;20.35;8.93;;;;;;;6.55;94.83;98309.50;5025090;28;20160;-62
2022/10/28 04:57:57;;;;;;;30.70;9.75;;;;;;;6.75;93.19;98306.25;5026107;28;20053;-62
2022/10/28 05:00:26;;;;;;;20.20;8.55;;;;;;;6.45;93.22;98254.72;5026285;28;20140;-62
2022/10/28 05:02:53;;;;;;;36.35;17.73;;;;;;;6.84;94.22;98306.31;5024424;28;20576;-62
2022/10/28 05:05:20;;;;;;;51.50;21.38;;;;;;;6.99;94.96;98303.94;5024874;28;20055;-64
2022/10/28 05:07:46;;;;;;;37.90;19.35;;;;;;;7.20;95.13;98310.53;5025798;28;20080;-62
2022/10/28 05:10:16;;;;;;;35.55;11.73;;;;;;;7.23;93.10;98309.91;5026224;28;20059;-62
2022/10/28 05:12:46;;;;;;;23.13;11.02;;;;;;;6.83;94.85;98310.97;5026435;28;20064;-64
2022/10/28 05:15:14;;;;;;;33.85;11.15;;;;;;;6.92;93.16;98295.34;5026133;28;20045;-62
2022/10/28 05:17:45;;;;;;;28.83;11.55;;;;;;;6.86;92.78;98277.31;5024253;28;20149;-63
2022/10/28 05:20:14;;;;;;;30.17;9.02;;;;;;;7.16;92.06;98331.59;5025871;28;20080;-62
2022/10/28 05:22:49;;;;;;;28.63;11.15;;;;;;;7.15;91.62;98329.97;5025132;28;20136;-62
2022/10/28 05:25:16;;;;;;;44.45;14.70;;;;;;;7.21;91.65;98320.44;5025353;28;20131;-62
2022/10/28 05:27:43;;;;;;;33.85;12.55;;;;;;;7.39;92.15;98324.88;5025484;28;20045;-62
2022/10/28 05:30:10;;;;;;;26.67;11.45;;;;;;;7.62;94.16;98322.84;5023932;28;20088;-63
2022/10/28 05:32:37;;;;;;;19.23;8.00;;;;;;;7.86;96.01;98314.97;5025277;28;20144;-62
2022/10/28 05:35:04;;;;;;;14.10;7.60;;;;;;;7.58;96.43;98239.97;5023794;28;20136;-68
2022/10/28 05:37:31;;;;;;;22.63;11.60;;;;;;;7.65;95.48;98237.53;5025079;28;20093;-67
2022/10/28 05:39:58;;;;;;;19.10;7.38;;;;;;;8.28;95.58;98317.00;5025662;28;20144;-68
2022/10/28 05:42:25;;;;;;;17.65;6.47;;;;;;;8.34;95.83;98298.31;5025484;28;20085;-68
2022/10/28 05:44:51;;;;;;;52.42;12.13;;;;;;;8.51;91.83;98323.16;5024062;28;20050;-67
2022/10/28 05:47:18;;;;;;;42.55;11.45;;;;;;;8.62;88.29;98325.25;5025134;28;20527;-68
2022/10/28 05:49:45;;;;;;;30.13;11.68;;;;;;;8.48;86.23;98274.09;5025545;28;20136;-68
2022/10/28 05:52:11;;;;;;;27.08;10.90;;;;;;;8.70;85.22;98321.69;5025052;28;20049;-67
2022/10/28 05:54:38;;;;;;;31.35;11.20;;;;;;;8.37;85.73;98256.25;5024196;28;20085;-68
2022/10/28 05:57:04;;;;;;;27.52;11.25;;;;;;;8.65;85.52;98263.03;5025544;28;20160;-68
2022/10/28 05:59:31;;;;;;;30.05;12.45;;;;;;;9.18;85.76;98335.25;5025119;28;20136;-68
2022/10/28 06:01:57;;;;;;;34.40;13.93;;;;;;;9.34;84.90;98330.81;5023490;28;20677;-67
2022/10/28 06:04:24;;;;;;;17.00;8.93;;;;;;;9.39;86.66;98330.59;5024815;28;20603;-62
2022/10/28 06:06:54;;;;;;;18.13;7.07;;;;;;;9.42;88.70;98332.69;5019276;28;20063;-61
2022/10/28 06:09:20;;;;;;;22.08;5.80;;;;;;;9.51;88.72;98341.78;5024529;28;20148;-62
2022/10/28 06:11:47;;;;;;;20.30;5.75;;;;;;;9.04;87.39;98240.66;5024432;28;20317;-62
2022/10/28 06:14:14;;;;;;;18.25;5.85;;;;;;;9.68;86.75;98338.94;5023828;28;20560;-62
2022/10/28 06:16:40;;;;;;;23.35;6.75;;;;;;;9.34;86.95;98269.97;5024431;28;20053;-62
2022/10/28 06:19:07;;;;;;;8.07;4.93;;;;;;;10.00;85.77;98331.94;5024306;28;20139;-63
2022/10/28 06:21:33;;;;;;;17.80;6.13;;;;;;;10.22;84.98;98335.25;5024509;28;20103;-68
2022/10/28 06:24:00;;;;;;;18.80;5.80;;;;;;;10.48;84.05;98338.63;5024659;28;20088;-63
2022/10/28 06:26:27;;;;;;;18.52;5.65;;;;;;;10.67;82.63;98341.72;5024485;28;20057;-64
2022/10/28 06:28:53;;;;;;;14.60;5.75;;;;;;;10.46;82.15;98273.63;5023164;28;20045;-66
2022/10/28 06:31:20;;;;;;;11.70;6.38;;;;;;;11.08;80.85;98337.25;5023141;28;20081;-63
2022/10/28 06:33:46;;;;;;;20.90;7.43;;;;;;;11.14;80.91;98305.38;5024295;28;20581;-61
2022/10/28 06:36:13;;;;;;;22.25;8.43;;;;;;;11.62;79.56;98338.75;5024808;28;20813;-62
2022/10/28 06:38:40;;;;;;;22.65;8.18;;;;;;;11.84;78.14;98346.66;5024217;28;20575;-63
2022/10/28 06:41:06;;;;;;;21.88;10.32;;;;;;;12.08;76.51;98341.09;5024474;28;20046;-61
2022/10/28 06:43:33;;;;;;;16.05;9.82;;;;;;;9.70;76.02;97923.59;5023368;28;20089;-70
2022/10/28 06:46:01;;;;;;;19.48;7.80;;;;;;;9.69;76.25;98072.19;5024745;28;20169;-65
2022/10/28 06:48:28;;;;;;;16.13;8.27;;;;;;;12.48;76.31;98332.81;5023520;28;20057;-65
2022/10/28 06:50:56;;;;;;;17.92;8.65;;;;;;;12.72;75.70;98339.13;5022461;28;20064;-64
2022/10/28 06:53:23;;;;;;;18.05;9.32;;;;;;;12.07;74.89;98217.28;5023340;28;20184;-62
2022/10/28 06:55:57;;;;;;;14.52;9.00;;;;;;;12.90;75.68;98340.44;5023575;28;20590;-61
2022/10/28 06:58:24;;;;;;;14.65;7.68;;;;;;;13.13;74.91;98338.75;5024419;28;20057;-62
2022/10/28 07:00:52;;;;;;;12.25;6.78;;;;;;;12.75;73.65;98232.75;5024377;28;20497;-63
2022/10/28 07:03:19;;;;;;;13.15;7.68;;;;;;;13.53;72.70;98319.94;5022949;28;20122;-61
2022/10/28 07:05:48;;;;;;;11.65;7.00;;;;;;;13.59;72.90;98321.28;5024057;28;20049;-64
2022/10/28 07:08:16;;;;;;;14.75;7.50;;;;;;;13.59;72.61;98279.53;5024336;28;20057;-62
2022/10/28 07:10:42;;;;;;;18.48;8.18;;;;;;;14.06;71.73;98314.88;5023969;28;20085;-62
2022/10/28 07:13:09;;;;;;;20.33;9.57;;;;;;;13.74;70.95;98252.06;5023893;28;20108;-63
2022/10/28 07:15:35;;;;;;;31.40;11.45;;;;;;;14.43;70.10;98302.25;5024050;28;20053;-62
2022/10/28 07:18:02;;;;;;;21.25;10.75;;;;;;;14.45;69.47;98283.16;5022449;28;20068;-62
2022/10/28 07:20:30;;;;;;;17.98;9.77;;;;;;;14.82;68.30;98287.13;5023937;28;20154;-60
2022/10/28 07:22:58;;;;;;;21.17;10.10;;;;;;;15.08;67.35;98304.00;5022380;28;20064;-63
2022/10/28 07:25:29;;;;;;;15.57;9.25;;;;;;;15.15;66.92;98301.34;5024125;28;20162;-63
2022/10/28 07:27:57;;;;;;;19.05;9.57;;;;;;;15.28;66.01;98277.69;5024238;28;20092;-61
2022/10/28 07:30:24;;;;;;;12.75;7.90;;;;;;;15.38;65.35;98299.41;5023175;28;20119;-62
2022/10/28 07:32:51;;;;;;;18.95;9.60;;;;;;;14.73;64.94;98158.25;5023360;28;20499;-62
2022/10/28 07:35:19;;;;;;;23.83;12.70;;;;;;;15.45;64.87;98249.28;5021980;28;20191;-62
2022/10/28 07:37:46;;;;;;;23.40;10.40;;;;;;;15.08;64.18;98201.53;5022463;28;20080;-62
2022/10/28 07:40:13;;;;;;;18.05;9.98;;;;;;;16.08;63.35;98300.63;5023530;28;20060;-63
2022/10/28 07:42:40;;;;;;;22.05;10.27;;;;;;;16.12;62.61;98273.53;5022082;28;20054;-62
2022/10/28 07:45:07;;;;;;;21.60;11.13;;;;;;;15.44;62.46;98157.50;5020036;28;20574;-64
2022/10/28 07:47:34;;;;;;;22.25;10.77;;;;;;;16.41;61.88;98286.75;5023024;28;20132;-60
2022/10/28 07:50:00;;;;;;;23.08;10.85;;;;;;;16.45;61.81;98256.84;5025701;28;20156;-63
2022/10/28 07:52:27;;;;;;;23.13;11.40;;;;;;;14.88;60.79;97956.44;5026009;28;20111;-70
2022/10/28 07:54:54;;;;;;;34.60;15.18;;;;;;;16.94;60.06;98237.09;5025510;28;20085;-69
2022/10/28 07:57:20;;;;;;;18.38;8.60;;;;;;;17.34;59.31;98284.72;5024855;28;20796;-62
2022/10/28 07:59:47;;;;;;;22.48;11.43;;;;;;;17.67;59.01;98281.06;5023006;28;20128;-65
2022/10/28 08:02:18;;;;;;;24.23;13.05;;;;;;;17.54;57.97;98220.91;5024847;28;20132;-62
2022/10/28 08:04:45;;;;;;;26.10;12.75;;;;;;;17.77;57.18;98213.88;5025235;28;20120;-64
2022/10/28 08:07:13;;;;;;;26.15;14.55;;;;;;;17.84;56.99;98182.31;5025195;28;20230;-62
2022/10/28 08:09:40;;;;;;;30.15;14.25;;;;;;;17.97;56.43;98166.78;5026365;28;20085;-65
2022/10/28 08:12:07;;;;;;;19.83;10.40;;;;;;;18.03;54.56;98176.41;5025371;28;20053;-60
2022/10/28 08:14:34;;;;;;;19.40;9.20;;;;;;;18.59;54.51;98255.28;5025481;28;20080;-65
2022/10/28 08:17:01;;;;;;;11.32;6.13;;;;;;;18.26;52.74;98168.53;5027200;28;20095;-61
2022/10/28 08:19:27;;;;;;;9.35;6.07;;;;;;;16.94;49.30;97950.75;5025989;28;20057;-63
2022/10/28 08:21:54;;;;;;;4.82;3.28;;;;;;;19.13;45.86;98229.03;5026507;28;20045;-60
2022/10/28 08:24:21;;;;;;;6.20;2.78;;;;;;;19.14;43.38;98202.56;5027280;28;20077;-63
2022/10/28 08:26:47;;;;;;;5.22;3.00;;;;;;;18.58;43.62;98090.09;5032694;28;20140;-62
2022/10/28 08:29:14;;;;;;;4.20;2.75;;;;;;;19.35;43.94;98206.22;5025787;28;20077;-60
2022/10/28 08:31:41;;;;;;;6.95;3.70;;;;;;;19.80;44.57;98254.44;5026801;28;20084;-61
2022/10/28 08:34:08;;;;;;;8.65;3.72;;;;;;;19.62;45.11;98205.84;5025650;28;20054;-64
2022/10/28 08:36:34;;;;;;;7.07;3.67;;;;;;;19.93;45.54;98258.47;5024985;28;20136;-63
2022/10/28 08:39:01;;;;;;;6.95;3.55;;;;;;;19.99;45.44;98260.47;5026316;28;20531;-61
2022/10/28 08:41:39;;;;;;;5.75;3.40;;;;;;;19.52;46.13;98270.06;5025606;28;20107;-60
2022/10/28 08:44:27;;;;;;;6.90;3.38;;;;;;;19.34;46.15;98258.00;5038215;28;20543;-63
2022/10/28 08:47:12;;;;;;;5.53;3.38;;;;;;;19.76;45.81;98259.28;5025972;28;20072;-67
2022/10/28 08:49:40;;;;;;;8.02;4.05;;;;;;;19.57;45.02;98231.53;5026321;28;20089;-62
2022/10/28 08:52:48;;;;;;;4.40;3.38;;;;;;;19.39;46.51;98260.41;5026032;28;20053;-67
2022/10/28 08:55:22;;;;;;;4.67;3.00;;;;;;;19.66;45.10;98246.00;5024866;28;20503;-66
2022/10/28 08:57:56;;;;;;;6.00;2.70;;;;;;;19.05;44.95;98110.22;5025047;28;20379;-65
2022/10/28 09:00:27;;;;;;;6.13;3.28;;;;;;;19.99;44.54;98231.53;5025933;28;20128;-62
2022/10/28 09:03:00;;;;;;;4.78;2.90;;;;;;;20.00;43.89;98221.88;5026301;28;20099;-65
2022/10/28 09:05:27;;;;;;;3.63;3.17;;;;;;;20.14;43.32;98222.69;5026247;28;20455;-61
2022/10/28 09:07:56;;;;;;;7.15;3.45;;;;;;;20.24;44.02;98246.41;5026069;28;20495;-62
2022/10/28 09:10:45;;;;;;;4.97;2.40;;;;;;;20.52;43.05;98249.13;5025988;28;20099;-66
2022/10/28 09:13:21;;;;;;;3.95;2.97;;;;;;;20.78;43.04;98241.03;5024650;28;20100;-62
2022/10/28 09:15:53;;;;;;;18.35;3.22;;;;;;;20.88;42.20;98233.75;5026071;28;20050;-62
2022/10/28 09:18:47;;;;;;;7.50;4.27;;;;;;;20.92;41.53;98228.88;5025927;28;20519;-66
2022/10/28 09:21:19;;;;;;;5.80;4.03;;;;;;;20.48;41.47;98163.91;5024064;28;20436;-66
2022/10/28 09:23:53;;;;;;;4.35;3.55;;;;;;;20.56;41.70;98211.34;5024173;28;20144;-66
2022/10/28 09:26:28;;;;;;;4.50;2.90;;;;;;;20.51;41.98;98225.03;5025736;28;20065;-65
2022/10/28 09:29:41;;;;;;;5.80;4.35;;;;;;;20.74;42.05;98222.50;5025152;28;20138;-64
2022/10/28 09:32:22;;;;;;;3.83;2.85;;;;;;;20.25;41.83;98222.69;5019199;28;20156;-65
2022/10/28 09:34:56;;;;;;;7.18;3.70;;;;;;;20.21;41.31;98171.22;5025642;28;20172;-61
2022/10/28 09:37:29;;;;;;;4.63;2.75;;;;;;;20.76;40.93;98212.47;5021559;28;20061;-63
2022/10/28 09:40:04;;;;;;;5.53;2.57;;;;;;;21.03;40.90;98195.84;5025173;28;20512;-62
2022/10/28 09:42:56;;;;;;;5.65;2.53;;;;;;;19.75;40.56;97956.78;5025399;28;20115;-63
2022/10/28 09:45:27;;;;;;;5.68;2.97;;;;;;;21.27;40.38;98191.28;5023340;28;20126;-61
2022/10/28 09:48:09;;;;;;;5.75;3.00;;;;;;;21.37;40.31;98194.00;5023826;28;20053;-63
2022/10/28 09:50:36;;;;;;;3.97;3.20;;;;;;;21.42;40.07;98165.38;5025515;28;20127;-65
2022/10/28 09:53:18;;;;;;;4.80;3.40;;;;;;;21.06;40.05;98124.56;5025404;28;20136;-64
2022/10/28 09:55:45;;;;;;;4.80;3.35;;;;;;;21.49;39.65;98185.06;5024906;28;20049;-65
2022/10/28 09:58:12;;;;;;;6.65;3.50;;;;;;;20.91;40.24;98114.59;5025225;28;20084;-62
2022/10/28 10:00:39;;;;;;;4.85;2.92;;;;;;;21.39;40.11;98173.84;5024636;28;20143;-64
2022/10/28 10:03:06;;;;;;;9.23;5.38;;;;;;;21.27;39.93;98178.00;5023707;28;20072;-62
2022/10/28 10:05:39;;;;;;;3.95;2.88;;;;;;;20.75;40.78;98134.00;5024792;28;20583;-62
2022/10/28 10:08:17;;;;;;;5.78;3.10;;;;;;;21.42;39.46;98173.84;5024390;28;20084;-62
2022/10/28 10:10:51;;;;;;;4.78;2.78;;;;;;;21.68;39.52;98170.41;5022443;28;20139;-59
2022/10/28 10:13:20;;;;;;;;;;;;;;;21.88;39.16;98163.00;5023400;28;20154;-62
2022/10/28 10:15:54;;;;;;;6.65;3.20;;;;;;;21.82;40.36;98169.50;5022438;28;20393;-62
2022/10/28 10:18:31;;;;;;;11.68;5.68;;;;;;;21.31;39.66;98128.00;5024342;28;20081;-62
2022/10/28 10:20:59;;;;;;;12.82;4.18;;;;;;;21.07;40.66;98162.81;5024246;28;20081;-62
2022/10/28 10:23:30;;;;;;;6.60;3.13;;;;;;;21.20;40.42;98160.31;5024122;28;20881;-60
2022/10/28 10:26:02;;;;;;;6.05;3.47;;;;;;;20.62;40.94;98141.31;5024170;28;20495;-60
2022/10/28 10:28:39;;;;;;;8.85;4.30;;;;;;;20.81;41.27;98133.16;5023580;28;20056;-60
2022/10/28 10:31:15;;;;;;;5.32;3.03;;;;;;;20.75;40.81;98081.28;5024350;28;20064;-60
2022/10/28 10:33:42;;;;;;;5.32;3.00;;;;;;;21.62;39.14;98157.97;5024174;28;20057;-62
2022/10/28 10:36:08;;;;;;;5.25;3.30;;;;;;;21.84;39.92;98155.78;5024783;28;20061;-60
2022/10/28 10:38:36;;;;;;;5.82;2.90;;;;;;;21.90;39.46;98143.63;5024597;28;20187;-62
2022/10/28 10:41:03;;;;;;;5.00;2.67;;;;;;;22.07;39.08;98137.00;5024245;28;20099;-60
2022/10/28 10:43:35;;;;;;;4.40;2.85;;;;;;;21.67;38.49;98039.03;5024208;28;20170;-61
2022/10/28 10:46:04;;;;;;;5.72;3.40;;;;;;;22.10;38.50;98102.28;5022503;28;20490;-61
2022/10/28 10:48:35;;;;;;;4.80;2.97;;;;;;;22.48;38.25;98151.84;5023590;28;20099;-61
2022/10/28 10:51:26;;;;;;;3.95;2.60;;;;;;;22.35;38.08;98135.88;5022947;28;20077;-61
2022/10/28 10:53:59;;;;;;;6.38;3.28;;;;;;;22.27;37.92;98106.13;5014305;28;20053;-62
2022/10/28 10:56:31;;;;;;;4.43;3.05;;;;;;;22.18;38.15;98120.75;5022896;28;20512;-61
2022/10/28 10:59:01;;;;;;;7.47;3.78;;;;;;;22.21;37.89;98117.06;5024449;28;20091;-62
2022/10/28 11:01:34;;;;;;;4.85;2.95;;;;;;;22.21;38.00;98090.84;5024331;28;20060;-63
2022/10/28 11:04:05;;;;;;;3.67;2.80;;;;;;;22.48;37.79;98105.06;5024374;28;20053;-62
2022/10/28 11:06:32;;;;;;;5.05;2.85;;;;;;;;;;5024134;28;20734;-62
2022/10/28 11:09:03;;;;;;;4.65;3.47;;;;;;;22.82;37.38;98103.81;5022751;28;20599;-62
2022/10/28 11:11:39;;;;;;;3.92;3.20;;;;;;;22.84;36.84;98118.28;5022865;28;20123;-62
2022/10/28 11:14:09;;;;;;;5.15;3.53;;;;;;;22.80;36.95;98111.91;5024324;28;20576;-61
2022/10/28 11:16:53;;;;;;;4.10;3.38;;;;;;;22.24;37.47;98040.00;5024499;28;20057;-61
2022/10/28 11:19:28;;;;;;;5.22;2.80;;;;;;;22.49;37.06;98074.34;5023220;28;20092;-61
2022/10/28 11:22:14;;;;;;;6.70;3.08;;;;;;;22.14;37.57;98082.50;5024072;28;20507;-60
2022/10/28 11:24:55;;;;;;;5.32;3.28;;;;;;;22.28;38.17;98102.88;5027723;28;20088;-60
2022/10/28 11:27:33;;;;;;;6.30;2.90;;;;;;;22.19;37.58;98048.16;5025744;28;20465;-63
2022/10/28 11:30:01;;;;;;;5.35;2.85;;;;;;;22.58;37.20;98075.91;5028076;28;20111;-61
2022/10/28 11:32:50;;;;;;;7.85;4.03;;;;;;;22.67;37.05;98067.72;5027941;28;20053;-60
2022/10/28 11:35:37;;;;;;;5.75;3.47;;;;;;;22.76;37.05;98088.56;5026676;28;20401;-61
2022/10/28 11:38:19;;;;;;;3.88;3.00;;;;;;;22.95;37.11;98085.03;5027547;28;20522;-61
2022/10/28 11:41:07;;;;;;;7.30;3.00;;;;;;;23.00;36.56;98080.94;5027364;28;20571;-61
2022/10/28 11:43:50;;;;;;;3.97;3.45;;;;;;;22.56;36.97;98016.22;5027214;28;20136;-63
2022/10/28 11:47:06;;;;;;;7.90;3.20;;;;;;;23.03;36.85;98065.97;5026138;28;20049;-61
2022/10/28 11:49:41;;;;;;;3.83;2.88;;;;;;;22.91;36.57;98067.34;5026688;28;20061;-60